Time;durP1;ratioP1;P1;durP2;ratioP2;P2;SDS_P1;SDS_P2;PMS_P1;PMS_P2;Temp;Humidity;BMP_temperature;BMP_pressure;BME280_temperature;BME280_humidity;BME280_pressure;Samples;Min_cycle;Max_cycle;Signal;HPM_P1;HPM_P2
2023/07/26 00:01:38;;;;;;;14.90;6.85;;;;;;;27.23;57.52;98923.41;5108024;28;20477;-23
2023/07/26 00:04:05;;;;;;;13.25;6.68;;;;;;;27.44;57.10;98925.00;5108006;28;20092;-25
2023/07/26 00:06:30;;;;;;;9.18;6.60;;;;;;;27.29;57.78;98923.13;5108046;28;20878;-24
2023/07/26 00:08:55;;;;;;;11.43;7.50;;;;;;;27.07;58.33;98922.63;5107953;28;20539;-24
2023/07/26 00:11:21;;;;;;;16.52;6.97;;;;;;;27.12;57.72;98930.56;5108001;28;20027;-26
2023/07/26 00:13:47;;;;;;;13.00;7.10;;;;;;;26.98;58.42;98925.56;5107414;27;20024;-26
2023/07/26 00:16:12;;;;;;;14.75;7.35;;;;;;;27.09;57.95;98931.25;5107750;28;20019;-24
2023/07/26 00:18:39;;;;;;;15.35;7.05;;;;;;;27.03;58.33;98921.75;5107768;28;20051;-25
2023/07/26 00:21:08;;;;;;;13.10;6.95;;;;;;;27.11;58.31;98918.03;5107993;28;20119;-24
2023/07/26 00:23:33;;;;;;;11.07;6.30;;;;;;;26.96;58.68;98924.34;5107345;28;20037;-24
2023/07/26 00:25:59;;;;;;;9.25;6.40;;;;;;;26.98;58.17;98919.31;5107324;28;20412;-24
2023/07/26 00:28:26;;;;;;;11.20;6.88;;;;;;;26.98;58.34;98922.03;5107690;28;20022;-26
2023/07/26 00:30:52;;;;;;;10.98;6.85;;;;;;;26.94;58.34;98926.63;5107223;28;20023;-24
2023/07/26 00:33:17;;;;;;;13.90;7.43;;;;;;;27.07;58.10;98914.41;5107677;28;20407;-24
2023/07/26 00:35:43;;;;;;;14.18;7.07;;;;;;;27.22;57.61;98908.09;5107468;28;20678;-24
2023/07/26 00:38:09;;;;;;;11.15;6.75;;;;;;;27.14;58.14;98903.63;5107476;28;20409;-24
2023/07/26 00:40:36;;;;;;;13.07;7.10;;;;;;;26.89;58.77;98900.34;5107175;28;20430;-24
2023/07/26 00:43:02;;;;;;;11.20;6.80;;;;;;;27.04;58.38;98896.00;5106973;28;20118;-24
2023/07/26 00:45:30;;;;;;;11.38;6.85;;;;;;;26.91;59.07;98894.50;5107250;28;20031;-24
2023/07/26 00:47:56;;;;;;;12.30;7.03;;;;;;;26.96;58.41;98889.56;5107235;28;20031;-25
2023/07/26 00:50:23;;;;;;;11.10;7.05;;;;;;;26.84;59.00;98879.53;5107057;28;20042;-24
2023/07/26 00:52:49;;;;;;;13.73;7.85;;;;;;;26.91;58.77;98889.03;5106751;27;20024;-24
2023/07/26 00:55:15;;;;;;;13.90;7.45;;;;;;;26.80;59.04;98892.31;5107165;28;20072;-24
2023/07/26 00:57:42;;;;;;;14.20;7.60;;;;;;;26.56;60.70;98892.50;5106157;28;20115;-24
2023/07/26 01:00:09;;;;;;;10.95;7.45;;;;;;;26.51;61.21;98884.59;5106489;28;20118;-24
2023/07/26 01:02:34;;;;;;;11.23;7.38;;;;;;;26.46;60.93;98886.44;5106801;28;20032;-24
2023/07/26 01:05:00;;;;;;;15.23;7.93;;;;;;;26.53;60.34;98876.84;5106934;28;20042;-24
2023/07/26 01:07:42;;;;;;;11.23;7.03;;;;;;;26.03;62.09;98873.66;5106965;28;20040;-24
2023/07/26 01:10:31;;;;;;;13.13;8.35;;;;;;;26.35;60.86;98868.97;5106897;28;20039;-24
2023/07/26 01:13:03;;;;;;;12.60;7.00;;;;;;;26.42;60.72;98871.91;5106601;28;20106;-26
2023/07/26 01:15:36;;;;;;;14.15;7.50;;;;;;;26.58;60.42;98871.09;5106622;28;20424;-25
2023/07/26 01:18:14;;;;;;;15.43;7.70;;;;;;;26.01;62.45;98874.03;5106246;28;20119;-24
2023/07/26 01:20:40;;;;;;;16.05;7.25;;;;;;;25.66;63.64;98871.91;5106344;28;20042;-24
2023/07/26 01:23:06;;;;;;;13.55;8.38;;;;;;;25.69;63.68;98875.09;5106098;28;20036;-23
2023/07/26 01:25:31;;;;;;;13.88;8.20;;;;;;;25.46;64.66;98859.25;5106545;28;20031;-24
2023/07/26 01:27:57;;;;;;;12.35;7.53;;;;;;;25.55;64.96;98862.63;5106539;28;20031;-27
2023/07/26 01:30:23;;;;;;;13.85;8.00;;;;;;;25.98;62.88;98863.78;5106047;28;20081;-22
2023/07/26 01:32:51;;;;;;;14.40;7.70;;;;;;;25.78;63.04;98851.91;5106208;28;20084;-24
2023/07/26 01:35:20;;;;;;;11.82;7.50;;;;;;;25.86;62.63;98855.63;5106017;28;20500;-24
2023/07/26 01:37:47;;;;;;;15.63;8.00;;;;;;;26.08;61.81;98867.16;5106132;28;20036;-24
2023/07/26 01:40:13;;;;;;;11.57;7.30;;;;;;;26.08;61.41;98867.94;5106057;28;20028;-24
2023/07/26 01:42:41;;;;;;;20.30;8.45;;;;;;;26.13;61.33;98864.13;5106060;28;20079;-24
2023/07/26 01:45:09;;;;;;;13.70;7.53;;;;;;;25.94;62.12;98868.34;5105727;28;20589;-24
2023/07/26 01:47:34;;;;;;;15.95;7.97;;;;;;;25.65;63.66;98867.56;5106236;28;20031;-25
2023/07/26 01:50:00;;;;;;;14.35;7.53;;;;;;;25.82;62.93;98871.91;5105604;28;20073;-25
2023/07/26 01:52:26;;;;;;;14.43;8.10;;;;;;;25.97;61.87;98883.25;5106050;28;20023;-24
2023/07/26 01:54:51;;;;;;;14.45;8.43;;;;;;;26.09;61.56;98885.13;5105625;28;20106;-24
2023/07/26 01:57:17;;;;;;;13.75;7.80;;;;;;;25.91;62.60;98888.19;5105788;28;20125;-24
2023/07/26 01:59:45;;;;;;;14.13;7.88;;;;;;;25.97;62.42;98881.31;5105234;28;20134;-24
2023/07/26 02:02:10;;;;;;;13.70;8.13;;;;;;;25.54;64.13;98879.34;5105369;28;20031;-25
2023/07/26 02:04:36;;;;;;;19.73;9.15;;;;;;;25.04;66.16;98882.19;5105723;28;20016;-26
2023/07/26 02:07:01;;;;;;;19.52;8.25;;;;;;;25.39;64.75;98880.88;5105428;28;20028;-26
2023/07/26 02:09:27;;;;;;;15.48;8.38;;;;;;;25.20;65.29;98879.56;5104712;28;20023;-26
2023/07/26 02:11:53;;;;;;;16.38;8.07;;;;;;;25.57;64.72;98884.13;5105386;28;20477;-24
2023/07/26 02:14:19;;;;;;;17.02;8.55;;;;;;;25.79;64.15;98889.00;5105595;28;20083;-24
2023/07/26 02:16:45;;;;;;;12.68;8.57;;;;;;;25.38;65.03;98879.31;5105162;28;20084;-24
2023/07/26 02:19:10;;;;;;;16.23;8.68;;;;;;;25.44;64.86;98883.38;5105249;28;20028;-24
2023/07/26 02:21:38;;;;;;;16.80;8.32;;;;;;;25.24;65.09;98874.22;5105169;28;20059;-24
2023/07/26 02:24:06;;;;;;;13.65;8.15;;;;;;;24.90;67.61;98876.31;5105357;28;20153;-25
2023/07/26 02:26:31;;;;;;;11.70;7.68;;;;;;;24.92;67.75;98876.75;5104980;28;20038;-24
2023/07/26 02:28:57;;;;;;;14.30;8.13;;;;;;;24.93;67.63;98880.28;5105391;28;20114;-24
2023/07/26 02:31:22;;;;;;;14.60;7.68;;;;;;;24.54;69.45;98875.22;5104973;28;20409;-24
2023/07/26 02:33:48;;;;;;;12.00;8.27;;;;;;;24.43;69.32;98883.00;5105016;28;20027;-24
2023/07/26 02:36:13;;;;;;;16.27;8.15;;;;;;;24.51;68.99;98881.34;5105028;28;20032;-24
2023/07/26 02:38:39;;;;;;;12.70;8.65;;;;;;;24.49;69.41;98885.53;5104778;28;20092;-24
2023/07/26 02:41:04;;;;;;;15.60;8.73;;;;;;;24.33;69.65;98875.28;5104455;28;20131;-24
2023/07/26 02:43:30;;;;;;;16.02;8.38;;;;;;;24.19;70.50;98870.19;5105254;28;20898;-24
2023/07/26 02:45:55;;;;;;;13.15;8.43;;;;;;;24.31;70.15;98865.88;5104835;28;20044;-24
2023/07/26 02:48:21;;;;;;;15.60;8.68;;;;;;;24.65;69.12;98881.78;5104981;28;20016;-24
2023/07/26 02:50:46;;;;;;;14.63;8.57;;;;;;;24.69;68.76;98879.19;5104840;28;20066;-24
2023/07/26 02:53:11;;;;;;;12.35;8.32;;;;;;;24.63;69.14;98886.78;5104577;28;20118;-24
2023/07/26 02:55:43;;;;;;;13.98;8.32;;;;;;;24.90;67.77;98883.72;5104727;28;20026;-24
2023/07/26 02:58:09;;;;;;;13.80;8.18;;;;;;;24.69;67.66;98887.38;5104645;28;20020;-24
2023/07/26 03:00:37;;;;;;;16.50;8.43;;;;;;;24.83;67.08;98882.34;5104451;28;20061;-24
2023/07/26 03:03:02;;;;;;;16.77;9.60;;;;;;;24.75;67.46;98896.91;5104529;28;20034;-24
2023/07/26 03:05:28;;;;;;;17.13;9.20;;;;;;;24.44;69.72;98876.44;5104740;28;20700;-26
2023/07/26 03:07:54;;;;;;;16.52;9.18;;;;;;;24.37;69.49;98884.38;5105032;28;20024;-24
2023/07/26 03:10:19;;;;;;;16.30;9.13;;;;;;;24.30;70.10;98889.59;5104459;28;20453;-24
2023/07/26 03:12:47;;;;;;;20.52;9.68;;;;;;;24.70;68.22;98888.94;5104539;28;20056;-24
2023/07/26 03:15:12;;;;;;;;;;;;;;;24.93;67.24;98888.47;5105107;28;20024;-24
2023/07/26 03:17:40;;;;;;;18.10;10.40;;;;;;;24.93;67.05;98894.72;5104350;28;19944;-24
2023/07/26 03:20:06;;;;;;;17.17;9.45;;;;;;;24.93;66.61;98891.19;5104452;28;20361;-25
2023/07/26 03:22:34;;;;;;;15.77;9.18;;;;;;;24.97;65.99;98892.13;5107517;28;20123;-24
2023/07/26 03:24:59;;;;;;;;;;;;;;;24.63;67.94;98905.09;5109098;28;20106;-24
2023/07/26 03:27:24;;;;;;;18.30;10.10;;;;;;;24.20;70.47;98906.38;5108912;28;20010;-24
2023/07/26 03:29:52;;;;;;;19.40;11.02;;;;;;;24.18;70.55;98881.41;5108415;28;20049;-24
2023/07/26 03:32:17;;;;;;;22.30;10.65;;;;;;;23.99;71.62;98899.09;5108577;28;20028;-23
2023/07/26 03:34:45;;;;;;;16.42;9.48;;;;;;;23.96;72.27;98899.75;5107998;28;20039;-24
2023/07/26 03:37:11;;;;;;;13.15;9.50;;;;;;;23.84;72.34;98888.81;5108634;28;20171;-24
2023/07/26 03:39:42;;;;;;;17.77;9.70;;;;;;;23.69;72.98;98894.88;5108544;28;20110;-24
2023/07/26 03:42:07;;;;;;;17.10;9.75;;;;;;;23.72;73.76;98894.19;5108423;28;20031;-24
2023/07/26 03:44:33;;;;;;;18.08;10.25;;;;;;;23.76;73.84;98893.22;5108461;28;20028;-24
2023/07/26 03:46:58;;;;;;;21.23;10.27;;;;;;;23.92;73.36;98898.81;5108408;28;20082;-26
2023/07/26 03:49:24;;;;;;;18.60;9.68;;;;;;;23.98;73.18;98899.41;5108207;28;20423;-25
2023/07/26 03:51:49;;;;;;;20.10;10.45;;;;;;;24.00;72.38;98897.94;5108271;28;20114;-23
2023/07/26 03:54:15;;;;;;;18.23;10.00;;;;;;;23.93;73.02;98908.59;5108244;28;20027;-24
2023/07/26 03:56:40;;;;;;;15.73;10.05;;;;;;;24.19;72.17;98899.34;5108301;28;20030;-24
2023/07/26 03:59:06;;;;;;;19.45;10.82;;;;;;;24.06;72.90;98899.31;5108028;28;20089;-24
2023/07/26 04:01:31;;;;;;;22.13;11.02;;;;;;;24.27;71.97;98887.53;5107616;28;20043;-24
2023/07/26 04:03:57;;;;;;;19.90;11.48;;;;;;;24.42;71.75;98884.16;5108085;28;20020;-24
2023/07/26 04:06:22;;;;;;;16.60;10.18;;;;;;;24.24;72.65;98899.13;5108098;27;20027;-24
2023/07/26 04:08:48;;;;;;;15.15;10.02;;;;;;;24.37;72.14;98889.81;5108011;28;20597;-24
2023/07/26 04:11:13;;;;;;;16.70;11.18;;;;;;;24.69;71.35;98890.09;5107632;28;20058;-24
2023/07/26 04:13:39;;;;;;;18.92;10.70;;;;;;;24.62;71.08;98887.13;5107799;28;20047;-24
2023/07/26 04:16:19;;;;;;;20.08;11.23;;;;;;;24.49;70.96;98869.97;5108034;28;20016;-24
2023/07/26 04:18:45;;;;;;;16.23;10.07;;;;;;;24.47;71.17;98883.91;5107832;28;20028;-24
2023/07/26 04:21:17;;;;;;;20.33;9.52;;;;;;;24.44;70.68;98871.00;5107641;28;20104;-24
2023/07/26 04:23:44;;;;;;;16.52;9.35;;;;;;;24.74;69.30;98878.94;5107278;28;20405;-24
2023/07/26 04:26:09;;;;;;;15.70;8.93;;;;;;;24.69;69.60;98887.38;5107663;28;20080;-24
2023/07/26 04:28:35;;;;;;;15.10;8.73;;;;;;;24.54;70.06;98880.69;5107631;28;20043;-24
2023/07/26 04:31:00;;;;;;;18.10;9.48;;;;;;;24.68;69.54;98888.50;5107628;28;20504;-23
2023/07/26 04:33:28;;;;;;;13.57;8.57;;;;;;;24.68;69.42;98880.31;5106409;28;20020;-24
2023/07/26 04:35:53;;;;;;;;;;;;;;;24.77;69.22;98877.47;5108316;28;20106;-24
2023/07/26 04:38:19;;;;;;;25.17;14.63;;;;;;;24.84;68.43;98862.13;5107265;28;19908;-24
2023/07/26 04:40:47;;;;;;;27.20;15.90;;;;;;;24.99;67.86;98879.72;5107347;28;20110;-24
2023/07/26 04:43:16;;;;;;;21.88;13.00;;;;;;;25.35;66.65;98885.44;5107075;28;20511;-25
2023/07/26 04:45:47;;;;;;;20.95;11.82;;;;;;;25.76;64.79;98878.00;5107624;28;20492;-23
2023/07/26 04:48:12;;;;;;;16.95;9.45;;;;;;;25.52;65.51;98874.25;5107266;28;20079;-24
2023/07/26 04:50:38;;;;;;;16.23;9.32;;;;;;;25.64;65.07;98870.66;5107316;28;20040;-24
2023/07/26 04:53:03;;;;;;;15.55;9.50;;;;;;;25.93;63.74;98874.16;5106871;28;20522;-23
2023/07/26 04:55:31;;;;;;;13.95;9.18;;;;;;;26.01;63.89;98868.56;5106998;28;20023;-24
2023/07/26 04:58:00;;;;;;;13.27;9.30;;;;;;;25.52;65.27;98857.88;5107119;28;20035;-24
2023/07/26 05:00:32;;;;;;;17.48;9.00;;;;;;;25.45;65.89;98852.19;5107052;28;20146;-25
2023/07/26 05:03:00;;;;;;;21.65;9.50;;;;;;;25.53;65.47;98853.97;5106729;28;20039;-26
2023/07/26 05:05:25;;;;;;;;;;;;;;;25.60;65.54;98853.38;5107834;28;20023;-24
2023/07/26 05:07:53;;;;;;;12.10;8.23;;;;;;;25.39;65.63;98848.13;5106784;28;19915;-23
2023/07/26 05:10:19;;;;;;;17.75;8.75;;;;;;;25.63;65.88;98837.09;5106826;28;20288;-26
2023/07/26 05:12:45;;;;;;;18.38;8.80;;;;;;;25.72;64.73;98827.94;5106805;28;20428;-23
2023/07/26 05:15:13;;;;;;;16.15;9.13;;;;;;;25.82;64.52;98835.63;5106626;28;20024;-24
2023/07/26 05:17:39;;;;;;;16.33;8.75;;;;;;;25.98;64.19;98841.94;5107157;28;20031;-24
2023/07/26 05:20:04;;;;;;;17.35;8.85;;;;;;;26.31;63.83;98827.09;5106677;28;20335;-26
2023/07/26 05:22:30;;;;;;;22.73;15.10;;;;;;;26.30;62.82;98820.06;5106420;27;20028;-26
2023/07/26 05:24:55;;;;;;;16.20;8.50;;;;;;;26.48;61.21;98819.69;5106781;28;20023;-24
2023/07/26 05:27:21;;;;;;;17.63;8.15;;;;;;;26.74;59.49;98821.84;5106364;28;20061;-24
2023/07/26 05:29:46;;;;;;;16.60;8.68;;;;;;;26.49;59.59;98797.47;5106707;28;20028;-24
2023/07/26 05:32:12;;;;;;;13.52;8.13;;;;;;;26.60;59.47;98800.47;5106257;28;20031;-24
2023/07/26 05:34:37;;;;;;;14.80;7.50;;;;;;;26.72;58.89;98800.34;5106130;28;20024;-24
2023/07/26 05:37:03;;;;;;;15.40;7.88;;;;;;;26.89;59.11;98795.59;5106433;28;20061;-25
2023/07/26 05:39:29;;;;;;;12.60;7.97;;;;;;;27.30;57.45;98805.06;5105887;28;20116;-24
2023/07/26 05:41:55;;;;;;;13.82;7.95;;;;;;;27.44;55.84;98820.97;5106202;28;20115;-22
2023/07/26 05:44:20;;;;;;;14.73;7.75;;;;;;;27.75;55.20;98835.63;5105657;28;20027;-22
2023/07/26 05:46:46;;;;;;;16.42;8.82;;;;;;;28.04;54.49;98843.22;5105943;27;20019;-23
2023/07/26 05:49:11;;;;;;;12.02;7.18;;;;;;;27.89;53.99;98846.88;5105763;28;20028;-22
2023/07/26 05:51:37;;;;;;;13.07;7.05;;;;;;;28.36;53.17;98859.41;5105713;28;20054;-23
2023/07/26 05:54:02;;;;;;;12.18;7.28;;;;;;;28.28;54.04;98856.88;5106022;28;20428;-27
2023/07/26 05:56:28;;;;;;;14.05;7.03;;;;;;;28.42;52.49;98868.91;5105790;28;20027;-23
2023/07/26 05:58:53;;;;;;;13.45;7.10;;;;;;;28.27;53.05;98860.81;5105984;28;20026;-23
2023/07/26 06:01:21;;;;;;;15.52;7.22;;;;;;;28.55;52.44;98855.00;5105773;28;20103;-25
2023/07/26 06:03:46;;;;;;;;;;;;;;;28.92;51.61;98851.59;5106096;27;20031;-23
2023/07/26 06:06:11;;;;;;;15.40;7.23;;;;;;;28.77;50.88;98861.56;5105817;28;19916;-23
2023/07/26 06:08:37;;;;;;;17.30;7.60;;;;;;;28.82;50.94;98862.06;5105669;28;20088;-23
2023/07/26 06:11:04;;;;;;;10.30;6.45;;;;;;;29.20;50.57;98865.72;5105631;28;20027;-23
2023/07/26 06:13:30;;;;;;;15.65;8.50;;;;;;;29.30;49.83;98863.47;5106023;28;20027;-26
2023/07/26 06:15:55;;;;;;;12.27;7.07;;;;;;;29.05;49.04;98877.66;5105773;28;20479;-23
2023/07/26 06:18:21;;;;;;;14.30;6.47;;;;;;;29.46;49.47;98880.53;5105798;28;20022;-25
2023/07/26 06:20:49;;;;;;;17.08;7.80;;;;;;;29.73;48.03;98878.53;5105761;28;20081;-24
2023/07/26 06:23:14;;;;;;;13.48;7.20;;;;;;;29.74;48.38;98879.31;5105017;28;20042;-23
2023/07/26 06:25:40;;;;;;;13.05;7.18;;;;;;;29.93;47.65;98876.34;5105688;28;20015;-24
2023/07/26 06:28:05;;;;;;;14.45;7.18;;;;;;;29.89;47.51;98886.50;5105232;28;20478;-23
2023/07/26 06:30:31;;;;;;;10.82;6.82;;;;;;;30.24;46.67;98880.56;5105437;28;20023;-25
2023/07/26 06:32:57;;;;;;;12.48;7.78;;;;;;;30.38;45.95;98871.69;5105245;28;20027;-23
2023/07/26 06:35:22;;;;;;;13.75;7.35;;;;;;;30.43;45.56;98865.81;5105518;28;20077;-23
2023/07/26 06:37:50;;;;;;;15.25;7.20;;;;;;;30.48;45.48;98869.38;5105170;28;20023;-23
2023/07/26 06:40:15;;;;;;;20.33;7.03;;;;;;;30.64;45.93;98867.13;5105003;28;20016;-24
2023/07/26 06:42:41;;;;;;;14.50;7.40;;;;;;;30.65;44.15;98871.47;5104932;28;20034;-24
2023/07/26 06:45:07;;;;;;;16.42;7.20;;;;;;;30.93;44.21;98859.84;5104880;28;20114;-24
2023/07/26 06:47:32;;;;;;;11.85;6.80;;;;;;;31.06;43.41;98863.09;5104837;28;20040;-25
2023/07/26 06:49:58;;;;;;;13.48;6.97;;;;;;;31.12;44.30;98861.53;5105196;28;20428;-24
2023/07/26 06:52:23;;;;;;;14.35;7.50;;;;;;;31.17;42.63;98852.88;5105046;28;20424;-24
2023/07/26 06:54:48;;;;;;;16.48;7.75;;;;;;;31.30;43.34;98847.03;5105041;28;20032;-24
2023/07/26 06:57:14;;;;;;;12.95;7.85;;;;;;;31.40;43.56;98849.03;5104293;28;20028;-24
2023/07/26 06:59:39;;;;;;;17.73;7.10;;;;;;;31.50;42.56;98842.78;5104656;28;20040;-24
2023/07/26 07:02:05;;;;;;;14.45;7.43;;;;;;;31.82;41.56;98842.09;5105056;28;20110;-24
2023/07/26 07:04:32;;;;;;;12.93;7.10;;;;;;;31.45;41.95;98829.41;5104857;28;20731;-24
2023/07/26 07:06:57;;;;;;;13.77;7.43;;;;;;;31.74;42.33;98833.00;5104854;28;20031;-24
2023/07/26 07:09:25;;;;;;;14.00;7.57;;;;;;;31.87;41.81;98832.63;5104360;28;20108;-24
2023/07/26 07:11:50;;;;;;;14.50;7.28;;;;;;;31.84;41.30;98823.19;5104942;28;20040;-24
2023/07/26 07:14:16;;;;;;;14.25;7.85;;;;;;;32.05;41.85;98822.44;5105168;28;20023;-22
2023/07/26 07:16:41;;;;;;;13.88;7.35;;;;;;;31.98;42.95;98825.16;5104784;28;20724;-23
2023/07/26 07:19:07;;;;;;;15.00;7.20;;;;;;;32.51;41.23;98826.31;5104412;28;20029;-22
2023/07/26 07:21:32;;;;;;;19.73;7.95;;;;;;;32.62;41.03;98816.09;5104564;28;20262;-23
2023/07/26 07:23:58;;;;;;;17.80;7.28;;;;;;;32.35;40.14;98808.22;5104692;28;20023;-24
2023/07/26 07:26:24;;;;;;;16.13;6.95;;;;;;;32.60;40.69;98808.19;5104689;28;20020;-23
2023/07/26 07:28:49;;;;;;;15.52;7.95;;;;;;;32.70;40.83;98797.53;5104921;28;20046;-22
2023/07/26 07:31:15;;;;;;;16.35;7.13;;;;;;;32.60;40.76;98812.94;5104359;28;20722;-22
2023/07/26 07:33:40;;;;;;;14.63;7.88;;;;;;;32.69;40.34;98799.50;5104575;28;20032;-23
2023/07/26 07:36:06;;;;;;;13.45;7.40;;;;;;;32.68;39.81;98795.16;5104401;28;20036;-22
2023/07/26 07:38:34;;;;;;;15.35;7.20;;;;;;;32.94;39.78;98798.63;5104229;28;20023;-23
2023/07/26 07:41:05;;;;;;;10.93;6.72;;;;;;;33.04;38.64;98797.81;5104417;28;20027;-22
2023/07/26 07:43:30;;;;;;;16.33;7.57;;;;;;;33.14;39.75;98797.00;5104564;28;20031;-23
2023/07/26 07:45:56;;;;;;;12.80;6.80;;;;;;;33.07;40.42;98802.50;5104623;28;20048;-23
2023/07/26 07:48:31;;;;;;;13.43;6.88;;;;;;;33.07;38.94;98802.50;5104142;28;20076;-23
2023/07/26 07:50:58;;;;;;;15.10;7.40;;;;;;;33.47;38.77;98794.03;5103887;28;20039;-22
2023/07/26 07:53:26;;;;;;;14.73;6.90;;;;;;;33.41;38.30;98785.41;5104181;28;20111;-24
2023/07/26 07:55:52;;;;;;;14.07;6.93;;;;;;;33.60;38.61;98779.34;5103990;28;20122;-22
2023/07/26 07:58:17;;;;;;;15.07;6.65;;;;;;;33.47;39.59;98786.53;5104271;28;20535;-22
2023/07/26 08:00:46;;;;;;;15.38;6.85;;;;;;;33.67;40.14;98781.28;5104135;28;20128;-23
2023/07/26 08:03:11;;;;;;;15.20;7.38;;;;;;;33.42;39.83;98784.19;5103900;28;20544;-22
2023/07/26 08:05:37;;;;;;;11.90;6.72;;;;;;;33.60;39.27;98779.34;5104300;28;20045;-23
2023/07/26 08:08:02;;;;;;;14.20;7.30;;;;;;;33.53;38.61;98773.88;5106430;28;20073;-22
2023/07/26 08:10:28;;;;;;;12.43;7.85;;;;;;;33.71;38.12;98770.19;5108395;28;20523;-22
2023/07/26 08:12:53;;;;;;;15.98;7.15;;;;;;;33.82;38.41;98773.69;5107881;27;20451;-23
2023/07/26 08:15:22;;;;;;;16.00;7.70;;;;;;;33.83;38.08;98764.19;5107642;28;20016;-23
2023/07/26 08:17:47;;;;;;;14.48;7.05;;;;;;;33.77;38.83;98760.28;5108098;28;20039;-23
2023/07/26 08:20:12;;;;;;;18.60;7.35;;;;;;;33.79;39.07;98758.69;5107879;28;20035;-23
2023/07/26 08:22:38;;;;;;;15.05;7.07;;;;;;;33.87;38.27;98770.47;5107776;28;20493;-22
2023/07/26 08:25:06;;;;;;;13.60;6.95;;;;;;;34.11;38.37;98763.16;5107656;28;20047;-27
2023/07/26 08:27:31;;;;;;;14.55;7.30;;;;;;;34.29;37.73;98768.53;5107996;28;20080;-22
2023/07/26 08:29:56;;;;;;;11.88;6.78;;;;;;;34.71;36.18;98765.72;5106444;28;20027;-22
2023/07/26 08:32:22;;;;;;;11.35;6.93;;;;;;;34.86;36.08;98769.09;5107663;28;20496;-24
2023/07/26 08:34:47;;;;;;;12.60;7.18;;;;;;;34.29;37.66;98770.53;5107772;28;20475;-22
2023/07/26 08:37:13;;;;;;;12.07;6.57;;;;;;;34.54;37.74;98759.19;5107355;28;20092;-23
2023/07/26 08:39:39;;;;;;;14.85;6.90;;;;;;;34.62;35.10;98761.44;5107360;28;20486;-23
2023/07/26 08:42:05;;;;;;;12.23;7.53;;;;;;;34.75;36.13;98745.09;5107135;28;20019;-23
2023/07/26 08:44:33;;;;;;;13.07;7.00;;;;;;;34.61;37.00;98740.50;5107350;28;20038;-22
2023/07/26 08:47:01;;;;;;;11.77;7.13;;;;;;;34.80;36.21;98747.41;5107382;27;20019;-23
2023/07/26 08:49:27;;;;;;;14.15;6.93;;;;;;;34.83;35.91;98742.25;5107059;28;20028;-23
2023/07/26 08:51:54;;;;;;;54.50;11.63;;;;;;;35.04;35.98;98746.72;5107152;28;20027;-23
2023/07/26 08:54:23;;;;;;;;;;;;;;;35.07;35.28;98754.22;5107940;28;21335;-23
2023/07/26 08:56:52;;;;;;;13.02;7.28;;;;;;;35.45;34.77;98740.22;5107162;27;19939;-23
2023/07/26 08:59:17;;;;;;;11.93;6.57;;;;;;;35.56;34.09;98740.84;5106620;28;20460;-23
2023/07/26 09:01:43;;;;;;;22.10;6.80;;;;;;;36.04;34.25;98731.31;5107333;28;20029;-23
2023/07/26 09:04:10;;;;;;;12.25;6.57;;;;;;;36.01;33.89;98724.63;5106549;28;20397;-23
2023/07/26 09:06:44;;;;;;;12.13;6.60;;;;;;;36.23;35.76;98715.97;5106891;27;20061;-27
2023/07/26 09:09:13;;;;;;;14.13;6.60;;;;;;;35.97;33.87;98721.13;5106711;28;20027;-24
2023/07/26 09:11:49;;;;;;;14.48;6.85;;;;;;;36.05;34.20;98704.38;5107052;28;20089;-26
2023/07/26 09:14:15;;;;;;;15.77;6.70;;;;;;;36.17;32.18;98706.56;5106908;28;20052;-24
2023/07/26 09:16:41;;;;;;;13.52;7.30;;;;;;;36.69;31.83;98716.25;5106730;28;20492;-24
2023/07/26 09:19:06;;;;;;;13.13;6.20;;;;;;;36.56;30.43;98718.88;5106174;28;20092;-24
2023/07/26 09:21:36;;;;;;;17.10;6.85;;;;;;;36.69;31.82;98703.13;5107071;28;20096;-24
2023/07/26 09:24:05;;;;;;;15.57;6.82;;;;;;;37.23;30.72;98699.22;5106989;27;20030;-24
2023/07/26 09:26:43;;;;;;;15.00;6.63;;;;;;;37.52;31.09;98702.06;5106474;28;20115;-25
2023/07/26 09:29:11;;;;;;;31.58;21.98;;;;;;;37.43;29.90;98696.31;5106589;28;20492;-24
2023/07/26 09:31:38;;;;;;;12.27;6.50;;;;;;;37.29;31.40;98688.34;5106324;28;20024;-24
2023/07/26 09:34:09;;;;;;;13.93;7.20;;;;;;;37.17;31.85;98687.03;5106658;28;20034;-24
2023/07/26 09:36:51;;;;;;;14.70;6.10;;;;;;;37.22;30.27;98677.41;5106385;28;20027;-24
2023/07/26 09:39:21;;;;;;;12.88;6.22;;;;;;;37.85;29.82;98679.81;5106536;28;20106;-24
2023/07/26 09:41:49;;;;;;;15.40;6.30;;;;;;;38.22;29.34;98674.84;5105826;28;20122;-23
2023/07/26 09:44:16;;;;;;;16.13;6.57;;;;;;;37.87;28.72;98676.59;5106244;28;20016;-26
2023/07/26 09:46:50;;;;;;;13.48;6.43;;;;;;;38.47;28.37;98662.22;5105587;28;20770;-24
2023/07/26 09:49:27;;;;;;;17.20;6.70;;;;;;;38.55;28.30;98661.56;5105902;28;20107;-27
2023/07/26 09:51:54;;;;;;;14.48;6.50;;;;;;;38.49;30.28;98671.69;5105723;28;20487;-24
2023/07/26 09:54:24;;;;;;;14.82;7.05;;;;;;;38.70;27.54;98670.31;5105892;28;20105;-24
2023/07/26 09:56:56;;;;;;;14.48;7.25;;;;;;;38.81;26.98;98672.00;5105710;28;20031;-24
2023/07/26 09:59:27;;;;;;;15.52;6.80;;;;;;;38.82;26.21;98662.38;5105439;28;20031;-25
2023/07/26 10:01:56;;;;;;;16.30;6.25;;;;;;;38.56;26.20;98662.38;5105391;28;20118;-24
2023/07/26 10:04:29;;;;;;;13.00;6.38;;;;;;;39.12;25.30;98656.28;5105802;28;20565;-24
2023/07/26 10:07:04;;;;;;;12.90;6.47;;;;;;;39.04;26.26;98651.38;5105495;28;20419;-24
2023/07/26 10:09:33;;;;;;;9.77;6.50;;;;;;;39.10;26.58;98652.38;5105772;28;20039;-23
2023/07/26 10:12:02;;;;;;;19.55;6.60;;;;;;;39.51;26.23;98651.44;5105641;28;20058;-24
2023/07/26 10:14:29;;;;;;;14.10;6.55;;;;;;;39.51;25.69;98642.28;5105747;28;20062;-25
2023/07/26 10:16:56;;;;;;;21.95;8.88;;;;;;;39.68;25.53;98628.94;5105451;28;20031;-24
2023/07/26 10:19:25;;;;;;;;;;;;;;;40.12;25.04;98629.00;5106340;28;20028;-23
2023/07/26 10:21:51;;;;;;;15.90;6.85;;;;;;;39.49;24.58;98631.56;5105118;28;19935;-24
2023/07/26 10:24:19;;;;;;;16.87;5.97;;;;;;;40.19;24.59;98620.34;5105449;28;20065;-23
2023/07/26 10:26:49;;;;;;;16.17;6.15;;;;;;;39.98;22.89;98610.75;5105104;28;20530;-25
2023/07/26 10:29:17;;;;;;;18.88;6.65;;;;;;;40.14;23.60;98616.13;5105263;28;20059;-24
2023/07/26 10:31:44;;;;;;;14.45;6.53;;;;;;;40.24;24.08;98616.22;5104297;27;20022;-24
2023/07/26 10:34:17;;;;;;;18.83;6.60;;;;;;;40.78;23.79;98606.56;5105326;28;20023;-25
2023/07/26 10:36:43;;;;;;;14.95;6.63;;;;;;;40.82;23.92;98610.00;5105408;28;20095;-24
2023/07/26 10:39:09;;;;;;;12.20;6.70;;;;;;;40.58;22.82;98604.13;5105504;28;20381;-24
2023/07/26 10:41:35;;;;;;;13.60;5.82;;;;;;;40.81;21.80;98600.06;5105338;28;20028;-24
2023/07/26 10:44:05;;;;;;;16.47;7.30;;;;;;;41.13;21.55;98595.16;5104710;28;20079;-24
2023/07/26 10:46:51;;;;;;;13.13;6.13;;;;;;;41.11;22.19;98592.84;5105049;28;20110;-25
2023/07/26 10:49:28;;;;;;;16.58;6.07;;;;;;;41.20;21.89;98566.16;5104912;28;20029;-25
2023/07/26 10:52:00;;;;;;;14.50;6.93;;;;;;;40.99;21.99;98565.00;5104758;28;20089;-26
2023/07/26 10:54:45;;;;;;;12.68;6.07;;;;;;;41.81;21.32;98577.50;5105005;28;20016;-26
2023/07/26 10:57:23;;;;;;;15.10;5.73;;;;;;;41.46;20.84;98558.22;5105052;28;20031;-24
2023/07/26 10:59:50;;;;;;;13.93;6.00;;;;;;;41.75;21.44;98571.78;5104888;28;20060;-25
2023/07/26 11:02:15;;;;;;;15.20;6.15;;;;;;;41.99;20.89;98571.13;5104669;28;20042;-25
2023/07/26 11:04:44;;;;;;;12.33;6.20;;;;;;;41.86;20.60;98568.50;5104874;28;20634;-24
2023/07/26 11:07:14;;;;;;;13.48;6.13;;;;;;;41.57;21.68;98569.75;5104554;28;20107;-24
2023/07/26 11:09:42;;;;;;;17.50;6.22;;;;;;;41.98;20.46;98552.78;5105121;28;20030;-24
2023/07/26 11:12:13;;;;;;;14.68;6.78;;;;;;;41.92;21.04;98550.59;5104461;28;20031;-25
2023/07/26 11:14:39;;;;;;;13.25;6.15;;;;;;;41.90;21.79;98550.28;5104595;28;20126;-25
2023/07/26 11:17:14;;;;;;;17.57;6.83;;;;;;;42.14;20.48;98532.84;5104868;28;20110;-36
2023/07/26 11:19:48;;;;;;;19.98;6.50;;;;;;;42.53;21.22;98542.19;5104768;28;20137;-24
2023/07/26 11:22:21;;;;;;;16.55;5.97;;;;;;;42.44;22.25;98544.25;5104948;28;20039;-24
2023/07/26 11:24:47;;;;;;;13.65;5.95;;;;;;;42.66;19.66;98536.34;5104458;28;20084;-26
2023/07/26 11:27:13;;;;;;;12.70;6.37;;;;;;;42.63;19.59;98534.50;5104122;28;20028;-24